createdAt,value
2023-02-18T00:01:45.427Z,102037.81
2023-02-18T00:04:13.843Z,102037.00
2023-02-18T00:06:42.179Z,102045.84
2023-02-18T00:09:11.318Z,102042.38
2023-02-18T00:11:40.526Z,102042.44
2023-02-18T00:14:15.776Z,102044.19
2023-02-18T00:16:45.169Z,102034.59
2023-02-18T00:19:18.105Z,102045.16
2023-02-18T00:21:46.995Z,102032.03
2023-02-18T00:24:17.294Z,102039.97
2023-02-18T00:26:46.336Z,102035.66
2023-02-18T00:29:16.056Z,102028.75
2023-02-18T00:31:44.559Z,102021.72
2023-02-18T00:34:14.132Z,102008.66
2023-02-18T00:36:43.119Z,102003.44
2023-02-18T00:39:12.795Z,102004.31
2023-02-18T00:41:41.792Z,101998.06
2023-02-18T00:44:10.378Z,101989.19
2023-02-18T00:46:40.558Z,101989.00
2023-02-18T00:49:09.662Z,101981.06
2023-02-18T00:51:38.381Z,101972.34
2023-02-18T00:54:07.003Z,101957.50
2023-02-18T00:56:35.557Z,101953.84
2023-02-18T00:59:03.996Z,101944.91
2023-02-18T01:01:32.481Z,101958.63
2023-02-18T01:04:02.413Z,101959.28
2023-02-18T01:06:30.764Z,101951.25
2023-02-18T01:08:59.077Z,101940.59
2023-02-18T01:11:27.501Z,101936.97
2023-02-18T01:13:56.142Z,101941.22
2023-02-18T01:16:25.251Z,101950.78
2023-02-18T01:18:53.967Z,101943.75
2023-02-18T01:21:23.645Z,101939.25
2023-02-18T01:23:51.946Z,101943.59
2023-02-18T01:26:20.375Z,101950.69
2023-02-18T01:28:48.743Z,101957.06
2023-02-18T01:31:19.015Z,101947.78
2023-02-18T01:33:47.544Z,101951.56
2023-02-18T01:36:15.906Z,101950.03
2023-02-18T01:38:45.529Z,101950.22
2023-02-18T01:41:13.954Z,101954.75
2023-02-18T01:43:42.224Z,101959.25
2023-02-18T01:46:20.612Z,101952.41
2023-02-18T01:48:54.136Z,101950.72
2023-02-18T01:51:29.629Z,101936.91
2023-02-18T01:54:04.923Z,101935.22
2023-02-18T01:56:39.477Z,101937.91
2023-02-18T01:59:11.811Z,101929.28
2023-02-18T02:01:44.150Z,101927.66
2023-02-18T02:04:12.814Z,101925.97
2023-02-18T02:06:41.163Z,101919.09
2023-02-18T02:09:14.955Z,101908.72
2023-02-18T02:12:16.160Z,101906.16
2023-02-18T02:15:08.022Z,101888.78
2023-02-18T02:17:49.590Z,101883.63
2023-02-18T02:20:54.881Z,101864.47
2023-02-18T02:24:11.586Z,101848.78
2023-02-18T02:27:13.227Z,101849.72
2023-02-18T02:30:43.647Z,101843.66
2023-02-18T02:33:52.640Z,101857.66
2023-02-18T02:36:28.565Z,101836.84
2023-02-18T02:39:04.724Z,101853.47
2023-02-18T02:41:45.825Z,101827.31
2023-02-18T02:44:22.504Z,101830.03
2023-02-18T02:46:57.010Z,101839.63
2023-02-18T02:49:37.897Z,101837.94
2023-02-18T02:52:14.296Z,101827.53
2023-02-18T02:54:42.752Z,101817.94
2023-02-18T02:57:50.890Z,101816.22
2023-02-18T03:00:25.178Z,101816.25
2023-02-18T03:03:09.519Z,101805.81
2023-02-18T03:05:53.890Z,101793.66
2023-02-18T03:08:36.400Z,101784.06
2023-02-18T03:11:08.513Z,101771.03
2023-02-18T03:13:58.760Z,101774.47
2023-02-18T03:16:35.793Z,101778.88
2023-02-18T03:19:12.979Z,101754.44
2023-02-18T03:21:47.395Z,101753.63
2023-02-18T03:24:21.597Z,101751.88
2023-02-18T03:26:53.823Z,101758.00
2023-02-18T03:29:24.644Z,101739.72
2023-02-18T03:31:59.225Z,101736.22
2023-02-18T03:34:31.699Z,101732.78
2023-02-18T03:37:01.950Z,101730.22
2023-02-18T03:39:32.429Z,101732.00
2023-02-18T03:42:01.279Z,101737.25
2023-02-18T03:44:33.099Z,101719.84
2023-02-18T03:47:01.524Z,101722.50
2023-02-18T03:49:29.807Z,101734.72
2023-02-18T03:51:58.133Z,101731.28
2023-02-18T03:54:26.457Z,101740.03
2023-02-18T03:56:54.799Z,101739.19
2023-02-18T03:59:23.188Z,101729.63
2023-02-18T04:01:52.840Z,101716.59
2023-02-18T04:04:21.245Z,101714.84
2023-02-18T04:06:49.523Z,101701.78
2023-02-18T04:09:19.015Z,101695.69
2023-02-18T04:11:47.375Z,101694.84
2023-02-18T04:14:16.227Z,101687.00
2023-02-18T04:16:44.608Z,101699.19
2023-02-18T04:19:14.272Z,101701.78
2023-02-18T04:21:42.645Z,101692.97
2023-02-18T04:24:10.889Z,101692.88
2023-02-18T04:26:39.211Z,101687.59
2023-02-18T04:29:07.848Z,101690.22
2023-02-18T04:31:36.276Z,101689.34
2023-02-18T04:34:05.073Z,101688.47
2023-02-18T04:36:34.823Z,101681.50
2023-02-18T04:39:03.393Z,101675.44
2023-02-18T04:41:31.907Z,101669.34
2023-02-18T04:44:00.695Z,101670.25
2023-02-18T04:46:29.597Z,101661.56
2023-02-18T04:48:57.836Z,101650.19
2023-02-18T04:51:26.209Z,101645.88
2023-02-18T04:53:55.873Z,101635.41
2023-02-18T04:56:24.159Z,101626.69
2023-02-18T04:58:52.433Z,101626.69
2023-02-18T05:01:20.780Z,101617.16
2023-02-18T05:03:49.242Z,101609.31
2023-02-18T05:06:17.512Z,101607.59
2023-02-18T05:08:45.848Z,101589.28
2023-02-18T05:11:15.567Z,101583.19
2023-02-18T05:13:43.869Z,101571.03
2023-02-18T05:16:12.525Z,101571.03
2023-02-18T05:18:40.989Z,101559.72
2023-02-18T05:21:09.528Z,101553.63
2023-02-18T05:23:37.902Z,101544.94
2023-02-18T05:26:06.951Z,101541.50
2023-02-18T05:28:36.792Z,101548.47
2023-02-18T05:31:05.601Z,101535.44
2023-02-18T05:33:33.951Z,101513.66
2023-02-18T05:36:03.058Z,101504.94
2023-02-18T05:38:31.459Z,101488.44
2023-02-18T05:40:59.740Z,101460.50
2023-02-18T05:43:28.060Z,101459.66
2023-02-18T05:45:57.825Z,101444.78
2023-02-18T05:48:26.186Z,101443.97
2023-02-18T05:50:55.970Z,101444.78
2023-02-18T05:53:24.464Z,101447.47
2023-02-18T05:55:52.820Z,101449.22
2023-02-18T05:58:21.177Z,101454.50
2023-02-18T06:00:49.514Z,101444.94
2023-02-18T06:03:19.283Z,101442.38
2023-02-18T06:05:51.384Z,101437.16
2023-02-18T06:08:20.401Z,101432.81
2023-02-18T06:10:48.835Z,101425.84
2023-02-18T06:13:17.418Z,101423.22
2023-02-18T06:15:45.971Z,101415.44
2023-02-18T06:18:14.395Z,101419.81
2023-02-18T06:20:44.219Z,101423.34
2023-02-18T06:23:12.508Z,101418.13
2023-02-18T06:25:41.123Z,101415.53
2023-02-18T06:28:09.664Z,101419.94
2023-02-18T06:30:38.146Z,101415.59
2023-02-18T06:33:06.801Z,101399.06
2023-02-18T06:35:36.098Z,101389.50
2023-02-18T06:38:05.796Z,101393.88
2023-02-18T06:40:34.378Z,101388.72
2023-02-18T06:43:02.685Z,101388.72
2023-02-18T06:45:31.057Z,101380.94
2023-02-18T06:47:59.402Z,101394.09
2023-02-18T06:50:27.765Z,101381.03
2023-02-18T06:52:56.146Z,101385.44
2023-02-18T06:55:26.098Z,101385.47
2023-02-18T06:57:54.392Z,101382.03
2023-02-18T07:00:23.879Z,101365.47
2023-02-18T07:02:52.415Z,101364.69
2023-02-18T07:05:20.890Z,101365.56
2023-02-18T07:07:49.250Z,101356.91
2023-02-18T07:10:17.607Z,101362.19
2023-02-18T07:12:47.451Z,101352.59
2023-02-18T07:15:15.984Z,101343.06
2023-02-18T07:17:44.602Z,101343.06
2023-02-18T07:20:13.360Z,101336.13
2023-02-18T07:22:41.728Z,101326.53
2023-02-18T07:25:10.200Z,101332.69
2023-02-18T07:27:39.084Z,101332.69
2023-02-18T07:30:10.568Z,101340.56
2023-02-18T07:32:39.263Z,101322.25
2023-02-18T07:35:08.629Z,101326.63
2023-02-18T07:37:36.916Z,101316.16
2023-02-18T07:40:06.690Z,101310.94
2023-02-18T07:42:35.689Z,101329.31
2023-02-18T07:45:04.062Z,101321.47
2023-02-18T07:47:33.695Z,101313.63
2023-02-18T07:50:02.126Z,101325.88
2023-02-18T07:52:30.395Z,101323.28
2023-02-18T07:54:58.750Z,101326.78
2023-02-18T07:57:27.100Z,101323.28
2023-02-18T07:59:55.441Z,101334.69
2023-02-18T08:02:25.628Z,101339.91
2023-02-18T08:04:55.977Z,101322.44
2023-02-18T08:07:24.740Z,101317.19
2023-02-18T08:09:53.085Z,101314.63
2023-02-18T08:12:21.419Z,101321.59
2023-02-18T08:14:49.667Z,101301.53
2023-02-18T08:17:18.282Z,101307.63
2023-02-18T08:19:46.618Z,101329.50
2023-02-18T08:22:16.212Z,101315.50
2023-02-18T08:24:44.491Z,101310.22
2023-02-18T08:27:13.492Z,101314.56
2023-02-18T08:29:41.790Z,101311.91
2023-02-18T08:32:10.122Z,101322.38
2023-02-18T08:34:38.583Z,101320.63
2023-02-18T08:37:07.311Z,101318.84
2023-02-18T08:39:39.778Z,101300.47
2023-02-18T08:42:08.548Z,101330.16
2023-02-18T08:44:36.909Z,101311.81
2023-02-18T08:47:05.706Z,101299.53
2023-02-18T08:49:54.933Z,101321.34
2023-02-18T08:52:24.074Z,101323.03
2023-02-18T08:54:53.772Z,101315.16
2023-02-18T08:57:22.143Z,101317.75
2023-02-18T08:59:50.523Z,101317.78
2023-02-18T09:02:18.789Z,101325.63
2023-02-18T09:04:47.287Z,101316.00
2023-02-18T09:07:15.735Z,101309.88
2023-02-18T09:09:44.185Z,101293.31
2023-02-18T09:12:13.817Z,101309.94
2023-02-18T09:14:42.660Z,101314.28
2023-02-18T09:17:11.011Z,101303.81
2023-02-18T09:19:39.294Z,101296.81
2023-02-18T09:22:07.661Z,101292.47
2023-02-18T09:24:39.244Z,101305.56
2023-02-18T09:27:10.235Z,101335.31
2023-02-18T09:29:43.381Z,101301.22
2023-02-18T09:32:19.986Z,101305.56
2023-02-18T09:34:53.887Z,101323.03
2023-02-18T09:37:22.190Z,101316.91
2023-02-18T09:39:50.713Z,101316.91
2023-02-18T09:42:31.478Z,101325.69
2023-02-18T09:45:04.516Z,101303.88
2023-02-18T09:47:37.210Z,101320.47
2023-02-18T09:50:13.898Z,101318.69
2023-02-18T09:52:42.267Z,101326.56
2023-02-18T09:55:21.677Z,101316.06
2023-02-18T09:57:53.273Z,101336.97
2023-02-18T10:00:28.375Z,101333.47
2023-02-18T10:02:59.850Z,101335.28
2023-02-18T10:05:31.011Z,101321.31
2023-02-18T10:08:05.370Z,101331.78
2023-02-18T10:10:41.190Z,101324.81
2023-02-18T10:13:15.645Z,101330.94
2023-02-18T10:15:47.511Z,101334.44
2023-02-18T10:21:09.108Z,101327.44
2023-02-18T10:23:41.929Z,101335.25
2023-02-18T10:26:16.393Z,101324.78
2023-02-18T10:28:45.711Z,101314.34
2023-02-18T10:31:22.083Z,101349.34
2023-02-18T10:34:00.840Z,101317.09
2023-02-18T10:36:37.552Z,101329.38
2023-02-18T10:39:47.381Z,101323.28
2023-02-18T10:42:32.035Z,101318.06
2023-02-18T10:45:14.347Z,101345.19
2023-02-18T10:47:56.482Z,101334.72
2023-02-18T10:50:31.922Z,101335.56
2023-02-18T10:53:11.366Z,101332.91
2023-02-18T10:55:42.390Z,101335.56
2023-02-18T10:58:28.881Z,101348.63
2023-02-18T11:00:57.818Z,101334.63
2023-02-18T11:03:37.582Z,101351.22
2023-02-18T11:06:06.770Z,101356.44
2023-02-18T11:08:44.387Z,101368.69
2023-02-18T11:11:22.273Z,101378.31
2023-02-18T11:13:55.673Z,101364.34
2023-02-18T11:16:25.110Z,101360.84
2023-02-18T11:18:54.780Z,101370.50
2023-02-18T11:21:30.943Z,101366.19
2023-02-18T11:24:08.665Z,101381.09
2023-02-18T11:26:38.491Z,101372.34
2023-02-18T11:29:13.173Z,101370.56
2023-02-18T11:31:45.343Z,101377.59
2023-02-18T11:34:21.613Z,101391.66
2023-02-18T11:36:52.295Z,101388.16
2023-02-18T11:39:24.526Z,101391.75
2023-02-18T11:41:58.035Z,101378.75
2023-02-18T11:44:31.630Z,101363.09
2023-02-18T11:47:03.199Z,101377.16
2023-02-18T11:49:35.149Z,101393.91
2023-02-18T11:52:18.697Z,101387.81
2023-02-18T11:55:04.612Z,101380.84
2023-02-18T11:57:34.028Z,101389.56
2023-02-18T12:00:03.557Z,101398.34
2023-02-18T12:02:37.651Z,101399.25
2023-02-18T12:05:15.906Z,101396.63
2023-02-18T12:07:47.425Z,101395.78
2023-02-18T12:10:23.403Z,101404.56
2023-02-18T12:13:02.176Z,101401.06
2023-02-18T12:15:42.559Z,101401.09
2023-02-18T12:18:33.742Z,101411.59
2023-02-18T12:21:23.024Z,101416.84
2023-02-18T12:24:04.849Z,101408.09
2023-02-18T12:26:47.373Z,101407.25
2023-02-18T12:29:45.040Z,101408.16
2023-02-18T12:32:28.608Z,101420.47
2023-02-18T12:35:17.193Z,101410.00
2023-02-18T12:38:04.285Z,101418.81
2023-02-18T12:40:52.944Z,101417.94
2023-02-18T12:43:37.512Z,101410.91
2023-02-18T12:46:49.086Z,101405.59
2023-02-18T12:49:57.139Z,101409.09
2023-02-18T12:52:39.903Z,101406.47
2023-02-18T12:55:31.475Z,101413.50
2023-02-18T12:58:10.781Z,101415.25
2023-02-18T13:01:02.282Z,101422.31
2023-02-18T13:04:18.478Z,101413.59
2023-02-18T13:07:09.773Z,101417.16
2023-02-18T13:10:02.900Z,101432.09
2023-02-18T13:12:43.915Z,101430.34
2023-02-18T13:15:19.916Z,101429.50
2023-02-18T13:17:50.299Z,101425.13
2023-02-18T13:20:27.281Z,101426.03
2023-02-18T13:22:55.771Z,101430.38
2023-02-18T13:25:25.037Z,101426.00
2023-02-18T13:28:10.020Z,101436.53
2023-02-18T13:30:46.754Z,101447.06
2023-02-18T13:33:23.794Z,101433.03
2023-02-18T13:36:01.756Z,101457.59
2023-02-18T13:38:59.617Z,101446.22
2023-02-18T13:41:28.717Z,101463.75
2023-02-18T13:43:58.405Z,101456.72
2023-02-18T13:46:28.349Z,101433.91
2023-02-18T13:49:07.466Z,101451.44
2023-02-18T13:51:43.265Z,101442.66
2023-02-18T13:54:22.541Z,101450.59
2023-02-18T13:56:55.501Z,101449.59
2023-02-18T13:59:34.448Z,101452.22
2023-02-18T14:02:34.252Z,101458.38
2023-02-18T14:05:22.744Z,101451.38
2023-02-18T14:07:53.703Z,101451.44
2023-02-18T14:10:35.957Z,101451.44
2023-02-18T14:13:27.106Z,101455.84
2023-02-18T14:16:02.010Z,101460.19
2023-02-18T14:18:56.540Z,101467.16
2023-02-18T14:21:39.248Z,101479.41
2023-02-18T14:24:11.381Z,101470.63
2023-02-18T14:26:46.128Z,101464.47
2023-02-18T14:29:22.320Z,101456.56
2023-02-18T14:31:57.843Z,101467.09
2023-02-18T14:35:13.534Z,101491.66
2023-02-18T14:38:20.495Z,101475.00
2023-02-18T14:41:20.418Z,101486.41
2023-02-18T14:44:33.981Z,101495.19
2023-02-18T14:47:25.318Z,101489.03
2023-02-18T14:49:56.019Z,101495.13
2023-02-18T14:52:32.362Z,101489.00
2023-02-18T14:55:04.688Z,101497.75
2023-02-18T14:57:40.506Z,101504.72
2023-02-18T15:00:18.678Z,101509.94
2023-02-18T15:02:51.507Z,101515.88
2023-02-18T15:05:23.251Z,101521.69
2023-02-18T15:08:03.012Z,101521.41
2023-02-18T15:10:39.679Z,101526.47
2023-02-18T15:13:14.747Z,101529.78
2023-02-18T15:15:45.665Z,101536.66
2023-02-18T15:18:29.149Z,101543.59
2023-02-18T15:20:57.764Z,101542.78
2023-02-18T15:23:26.317Z,101562.09
2023-02-18T15:25:55.667Z,101555.25
2023-02-18T15:28:28.083Z,101555.41
2023-02-18T15:30:59.092Z,101555.50
2023-02-18T15:33:29.818Z,101561.72
2023-02-18T15:36:03.395Z,101551.25
2023-02-18T15:38:32.290Z,101561.78
2023-02-18T15:41:02.084Z,101553.00
2023-02-18T15:43:32.216Z,101560.03
2023-02-18T15:46:00.652Z,101573.13
2023-02-18T15:48:40.989Z,101567.00
2023-02-18T15:51:17.744Z,101567.88
2023-02-18T15:53:50.718Z,101572.22
2023-02-18T15:56:23.497Z,101570.47
2023-02-18T15:58:52.172Z,101585.31
2023-02-18T16:01:29.611Z,101589.69
2023-02-18T16:04:00.096Z,101584.38
2023-02-18T16:06:32.411Z,101581.75
2023-02-18T16:09:04.354Z,101583.47
2023-02-18T16:11:37.758Z,101575.59
2023-02-18T16:14:06.639Z,101583.44
2023-02-18T16:16:36.969Z,101572.88
2023-02-18T16:19:06.664Z,101595.59
2023-02-18T16:21:40.088Z,101574.59
2023-02-18T16:24:26.353Z,101577.13
2023-02-18T16:26:58.628Z,101594.56
2023-02-18T16:29:35.946Z,101594.47
2023-02-18T16:32:04.568Z,101597.06
2023-02-18T16:34:35.813Z,101596.13
2023-02-18T16:37:22.253Z,101589.09
2023-02-18T16:39:54.932Z,101589.94
2023-02-18T16:42:23.329Z,101603.91
2023-02-18T16:44:51.958Z,101598.66
2023-02-18T16:47:21.543Z,101613.50
2023-02-18T16:49:52.824Z,101603.84
2023-02-18T16:52:21.520Z,101625.69
2023-02-18T16:54:50.278Z,101616.06
2023-02-18T16:57:18.577Z,101623.03
2023-02-18T16:59:46.994Z,101620.38
2023-02-18T17:02:20.280Z,101626.44
2023-02-18T17:04:50.034Z,101623.88
2023-02-18T17:07:18.538Z,101622.09
2023-02-18T17:09:46.827Z,101626.44
2023-02-18T17:12:16.027Z,101636.91
2023-02-18T17:14:46.816Z,101643.00
2023-02-18T17:17:17.953Z,101643.88
2023-02-18T17:19:46.284Z,101640.31
2023-02-18T17:22:16.319Z,101641.19
2023-02-18T17:24:44.748Z,101640.28
2023-02-18T17:27:13.079Z,101645.50
2023-02-18T17:29:41.355Z,101637.59
2023-02-18T17:32:10.096Z,101643.66
2023-02-18T17:34:41.004Z,101646.22
2023-02-18T17:37:15.258Z,101664.53
2023-02-18T17:39:43.716Z,101657.50
2023-02-18T17:42:12.933Z,101660.09
2023-02-18T17:44:42.319Z,101659.19
2023-02-18T17:47:10.638Z,101661.81
2023-02-18T17:49:39.001Z,101656.53
2023-02-18T17:52:07.335Z,101654.75
2023-02-18T17:54:37.089Z,101666.09
2023-02-18T17:57:05.318Z,101675.72
2023-02-18T17:59:33.597Z,101671.34
2023-02-18T18:02:01.831Z,101670.44
2023-02-18T18:04:30.235Z,101679.16
2023-02-18T18:06:58.463Z,101683.56
2023-02-18T18:09:26.711Z,101681.81
2023-02-18T18:11:56.415Z,101684.44
2023-02-18T18:14:24.759Z,101687.09
2023-02-18T18:16:53.085Z,101686.22
2023-02-18T18:19:21.399Z,101685.38
2023-02-18T18:21:49.650Z,101685.38
2023-02-18T18:24:17.863Z,101686.25
2023-02-18T18:26:46.277Z,101679.28
2023-02-18T18:29:15.950Z,101676.63
2023-02-18T18:31:44.297Z,101680.16
2023-02-18T18:34:17.331Z,101674.91
2023-02-18T18:36:45.911Z,101681.03
2023-02-18T18:39:14.169Z,101679.19
2023-02-18T18:41:42.465Z,101682.50
2023-02-18T18:44:12.348Z,101690.28
2023-02-18T18:46:42.191Z,101692.94
2023-02-18T18:49:10.459Z,101695.59
2023-02-18T18:51:39.262Z,101700.00
2023-02-18T18:54:07.662Z,101692.88
2023-02-18T18:56:37.860Z,101699.63
2023-02-18T18:59:08.571Z,101704.66
2023-02-18T19:01:36.961Z,101689.66
2023-02-18T19:04:06.853Z,101685.22
2023-02-18T19:06:35.404Z,101681.63
2023-02-18T19:09:03.672Z,101682.38
2023-02-18T19:11:31.978Z,101691.03
2023-02-18T19:14:00.284Z,101679.63
2023-02-18T19:16:36.015Z,101672.63
2023-02-18T19:19:04.451Z,101672.56
2023-02-18T19:21:34.167Z,101677.81
2023-02-18T19:24:02.498Z,101689.16
2023-02-18T19:26:30.761Z,101689.97
2023-02-18T19:28:59.164Z,101685.59
2023-02-18T19:31:28.317Z,101676.84
2023-02-18T19:33:56.695Z,101672.44
2023-02-18T19:36:25.038Z,101673.31
2023-02-18T19:38:54.687Z,101679.34
2023-02-18T19:41:23.116Z,101683.69
2023-02-18T19:43:51.454Z,101673.22
2023-02-18T19:46:20.586Z,101675.84
2023-02-18T19:48:51.259Z,101681.09
2023-02-18T19:51:20.644Z,101676.72
2023-02-18T19:53:49.128Z,101686.31
2023-02-18T19:56:18.785Z,101681.16
2023-02-18T19:58:47.112Z,101680.28
2023-02-18T20:01:17.464Z,101681.22
2023-02-18T20:03:47.387Z,101677.75
2023-02-18T20:06:17.601Z,101671.66
2023-02-18T20:08:46.162Z,101668.22
2023-02-18T20:11:14.546Z,101665.59
2023-02-18T20:13:44.779Z,101670.88
2023-02-18T20:16:13.711Z,101659.53
2023-02-18T20:18:42.104Z,101663.84
2023-02-18T20:21:12.601Z,101656.91
2023-02-18T20:23:40.999Z,101656.91
2023-02-18T20:26:10.108Z,101655.22
2023-02-18T20:28:38.597Z,101656.09
2023-02-18T20:31:11.265Z,101652.63
2023-02-18T20:33:42.286Z,101646.56
2023-02-18T20:36:12.572Z,101651.84
2023-02-18T20:38:41.126Z,101648.38
2023-02-18T20:41:14.048Z,101644.88
2023-02-18T20:43:42.766Z,101645.75
2023-02-18T20:46:15.831Z,101644.00
2023-02-18T20:48:44.450Z,101632.63
2023-02-18T20:51:15.152Z,101631.78
2023-02-18T20:53:45.687Z,101630.06
2023-02-18T20:56:14.464Z,101624.84
2023-02-18T20:58:43.368Z,101624.84
2023-02-18T21:01:15.058Z,101621.34
2023-02-18T21:03:44.386Z,101619.59
2023-02-18T21:06:15.990Z,101618.75
2023-02-18T21:08:46.854Z,101622.25
2023-02-18T21:11:17.725Z,101619.66
2023-02-18T21:13:47.789Z,101618.78
2023-02-18T21:16:19.152Z,101620.53
2023-02-18T21:18:47.431Z,101627.50
2023-02-18T21:21:16.309Z,101620.53
2023-02-18T21:23:44.761Z,101627.50
2023-02-18T21:26:16.024Z,101622.25
2023-02-18T21:28:48.111Z,101619.66
2023-02-18T21:31:21.854Z,101618.75
2023-02-18T21:33:50.460Z,101617.81
2023-02-18T21:36:20.165Z,101605.59
2023-02-18T21:38:53.469Z,101602.13
2023-02-18T21:41:21.922Z,101599.50
2023-02-18T21:43:50.436Z,101599.50
2023-02-18T21:46:24.204Z,101583.78
2023-02-18T21:49:06.627Z,101575.97
2023-02-18T21:51:57.963Z,101579.47
2023-02-18T21:54:29.356Z,101571.63
2023-02-18T21:57:02.971Z,101577.75
2023-02-18T21:59:42.567Z,101578.63
2023-02-18T22:02:18.820Z,101575.16
2023-02-18T22:04:48.379Z,101561.22
2023-02-18T22:07:17.781Z,101557.78
2023-02-18T22:09:48.479Z,101553.53
2023-02-18T22:12:17.922Z,101554.44
2023-02-18T22:14:46.212Z,101545.69
2023-02-18T22:17:17.075Z,101549.22
2023-02-18T22:19:46.241Z,101537.03
2023-02-18T22:22:14.598Z,101541.44
2023-02-18T22:24:42.887Z,101530.13
2023-02-18T22:27:11.885Z,101530.19
2023-02-18T22:29:40.488Z,101531.09
2023-02-18T22:32:08.961Z,101528.50
2023-02-18T22:34:38.835Z,101529.31
2023-02-18T22:37:07.441Z,101525.84
2023-02-18T22:39:35.811Z,101528.50
2023-02-18T22:42:04.150Z,101525.03
2023-02-18T22:44:32.647Z,101522.44
2023-02-18T22:47:01.077Z,101524.19
2023-02-18T22:49:29.341Z,101525.06
2023-02-18T22:51:59.010Z,101532.00
2023-02-18T22:54:27.318Z,101518.84
2023-02-18T22:56:55.836Z,101526.72
2023-02-18T22:59:24.081Z,101521.53
2023-02-18T23:01:53.251Z,101515.44
2023-02-18T23:04:22.793Z,101523.31
2023-02-18T23:06:52.288Z,101510.25
2023-02-18T23:09:24.199Z,101510.28
2023-02-18T23:11:54.352Z,101509.41
2023-02-18T23:14:23.116Z,101498.06
2023-02-18T23:17:12.730Z,101496.34
2023-02-18T23:19:43.204Z,101496.38
2023-02-18T23:22:14.016Z,101499.88
2023-02-18T23:24:46.684Z,101505.97
2023-02-18T23:27:16.627Z,101502.50
2023-02-18T23:29:44.979Z,101492.88
2023-02-18T23:32:13.688Z,101493.69
2023-02-18T23:34:42.000Z,101498.97
2023-02-18T23:37:11.037Z,101498.06
2023-02-18T23:39:39.940Z,101500.72
2023-02-18T23:42:10.061Z,101499.81
2023-02-18T23:44:38.565Z,101493.72
2023-02-18T23:47:08.474Z,101494.56
2023-02-18T23:49:36.817Z,101493.72
2023-02-18T23:52:05.228Z,101493.72
2023-02-18T23:54:33.663Z,101498.94
2023-02-18T23:57:02.054Z,101502.41
2023-02-18T23:59:31.761Z,101498.03
